Time;durP1;ratioP1;P1;durP2;ratioP2;P2;SDS_P1;SDS_P2;PMS_P1;PMS_P2;Temp;Humidity;BMP_temperature;BMP_pressure;BME280_temperature;BME280_humidity;BME280_pressure;Samples;Min_cycle;Max_cycle;Signal;HPM_P1;HPM_P2
2023/01/06 00:01:18;;;;;;;15.57;4.43;;;;;;;10.11;95.32;101105.31;5053407;28;19920;-70
2023/01/06 00:04:21;;;;;;;15.32;4.13;;;;;;;10.12;94.80;101104.44;5053369;28;20056;-70
2023/01/06 00:07:25;;;;;;;17.77;4.57;;;;;;;10.02;95.55;101099.56;5053147;28;20056;-70
2023/01/06 00:10:28;;;;;;;18.15;6.78;;;;;;;10.05;95.40;101093.38;5052633;28;20107;-70
2023/01/06 00:13:31;;;;;;;;;;;;;;;10.08;95.15;101090.59;5053801;28;20115;-71
2023/01/06 00:16:35;;;;;;;15.68;7.10;;;;;;;10.08;95.11;101097.59;5053191;28;19962;-70
2023/01/06 00:19:38;;;;;;;;;;;;;;;10.10;95.05;101085.34;5053919;28;20055;-70
2023/01/06 00:22:42;;;;;;;18.75;5.82;;;;;;;10.12;94.86;101094.81;5053143;28;20033;-70
2023/01/06 00:25:50;;;;;;;18.55;6.47;;;;;;;10.15;94.40;101089.47;5053163;28;20513;-70
2023/01/06 00:28:54;;;;;;;17.33;6.63;;;;;;;10.12;94.40;101093.97;5053174;28;20457;-69
2023/01/06 00:31:59;;;;;;;18.10;5.95;;;;;;;10.04;94.96;101106.50;5063760;28;20047;-69
2023/01/06 00:35:03;;;;;;;18.08;6.43;;;;;;;10.06;94.95;101095.06;5052232;28;20059;-70
2023/01/06 00:38:07;;;;;;;19.17;7.40;;;;;;;10.02;94.84;101078.66;5051939;28;20079;-70
2023/01/06 00:44:36;;;;;;;;;;;;;;;9.93;95.56;101071.22;5063720;28;20044;-70
2023/01/06 00:47:39;;;;;;;27.05;12.38;;;;;;;9.78;96.81;101083.13;5051855;28;19923;-70
2023/01/06 00:50:43;;;;;;;27.63;13.93;;;;;;;9.74;97.74;101072.88;5052644;28;20075;-70
2023/01/06 00:53:47;;;;;;;20.63;7.78;;;;;;;9.84;96.88;101082.03;5052612;28;20068;-70
2023/01/06 00:56:52;;;;;;;16.88;5.68;;;;;;;9.88;96.39;101083.59;5052063;28;20056;-70
2023/01/06 00:59:55;;;;;;;24.40;8.10;;;;;;;9.67;97.40;101082.72;5051930;28;20067;-70
2023/01/06 01:02:58;;;;;;;20.77;7.38;;;;;;;9.72;98.07;101074.69;5052547;28;20414;-70
2023/01/06 01:06:04;;;;;;;15.98;5.85;;;;;;;9.85;96.80;101073.25;5052345;28;20067;-70
2023/01/06 01:09:07;;;;;;;11.63;4.95;;;;;;;9.85;96.26;101080.25;5051600;28;20121;-70
2023/01/06 01:12:11;;;;;;;;;;;;;;;9.85;96.25;101086.31;5052928;28;20180;-70
2023/01/06 01:15:15;;;;;;;31.83;13.50;;;;;;;9.86;95.97;101077.59;5052619;28;19920;-70
2023/01/06 01:18:18;;;;;;;25.60;11.77;;;;;;;9.85;96.30;101081.09;5051466;28;20563;-70
2023/01/06 01:21:22;;;;;;;21.38;8.50;;;;;;;9.90;96.35;101089.63;5052916;28;20047;-70
2023/01/06 01:24:25;;;;;;;18.42;6.15;;;;;;;9.65;97.79;101094.13;5056529;28;20047;-70
2023/01/06 01:27:28;;;;;;;;;;;;;;;9.71;97.75;101083.44;5056842;28;20052;-71
2023/01/06 01:30:31;;;;;;;16.45;8.27;;;;;;;9.73;98.33;101092.03;5056031;28;19925;-70
2023/01/06 01:33:36;;;;;;;24.55;6.90;;;;;;;9.86;97.42;101088.06;5056356;28;20044;-70
2023/01/06 01:36:41;;;;;;;15.88;5.38;;;;;;;9.93;96.87;101086.88;5055891;28;20063;-70
2023/01/06 01:39:45;;;;;;;11.50;4.70;;;;;;;9.92;96.62;101087.81;5056202;28;20521;-70
2023/01/06 01:42:49;;;;;;;15.77;6.43;;;;;;;9.75;97.11;101095.44;5044033;28;20043;-70
2023/01/06 01:45:54;;;;;;;;;;;;;;;9.83;97.43;101093.41;5055641;28;20047;-70
2023/01/06 01:49:12;;;;;;;12.02;5.63;;;;;;;9.95;96.56;101097.25;5055333;28;19969;-70
2023/01/06 01:52:17;;;;;;;12.60;5.60;;;;;;;9.90;97.11;101099.22;5055056;28;20047;-71
2023/01/06 01:55:21;;;;;;;12.02;4.47;;;;;;;9.76;98.30;101104.97;5055031;28;20044;-70
2023/01/06 01:58:28;;;;;;;10.55;4.25;;;;;;;9.88;97.95;101090.59;5054948;28;20087;-70
2023/01/06 02:01:32;;;;;;;10.77;3.42;;;;;;;9.84;98.79;101079.41;5055055;28;20130;-70
2023/01/06 02:04:40;;;;;;;8.60;3.97;;;;;;;9.90;97.90;101079.16;5055685;28;20552;-70
2023/01/06 02:07:44;;;;;;;10.27;4.15;;;;;;;9.90;97.66;101067.88;5054660;28;20048;-70
2023/01/06 02:10:48;;;;;;;8.40;4.18;;;;;;;9.92;97.75;101069.53;5054956;28;20040;-70
2023/01/06 02:13:56;;;;;;;;;;;;;;;9.93;98.20;101068.59;5055964;28;20118;-70
2023/01/06 02:17:28;;;;;;;6.95;2.90;;;;;;;9.66;99.98;101059.25;5054778;28;19958;-70
2023/01/06 02:20:41;;;;;;;9.40;2.53;;;;;;;9.70;100.00;101060.81;5054601;28;20090;-70
2023/01/06 02:23:44;;;;;;;7.25;2.78;;;;;;;9.72;100.00;101061.63;5054584;28;20111;-70
2023/01/06 02:27:15;;;;;;;8.98;2.50;;;;;;;9.85;99.13;101054.97;5054077;28;20043;-70
2023/01/06 02:30:37;;;;;;;12.05;3.65;;;;;;;9.82;99.34;101057.72;5054400;28;20048;-70
2023/01/06 02:33:52;;;;;;;8.60;2.13;;;;;;;9.83;99.72;101054.22;5052842;28;20047;-70
2023/01/06 02:37:01;;;;;;;9.85;2.50;;;;;;;9.76;99.73;101055.34;5053883;28;20128;-70
2023/01/06 02:40:27;;;;;;;8.05;2.10;;;;;;;9.77;99.38;101051.84;5054081;28;20068;-70
2023/01/06 02:43:38;;;;;;;6.10;2.17;;;;;;;9.72;99.92;101045.94;5054238;28;20076;-70
2023/01/06 02:47:06;;;;;;;6.75;1.52;;;;;;;9.68;100.00;101041.78;5054114;28;20098;-70
2023/01/06 02:50:22;;;;;;;6.05;1.45;;;;;;;9.77;100.00;101041.41;5053749;28;20110;-70
2023/01/06 02:53:47;;;;;;;4.90;1.00;;;;;;;9.81;100.00;101048.19;5054234;28;20044;-70
2023/01/06 02:57:17;;;;;;;4.45;0.90;;;;;;;9.78;100.00;101053.53;5053960;28;20072;-70
2023/01/06 03:00:32;;;;;;;1.88;0.60;;;;;;;9.83;98.15;101041.16;5053445;28;20055;-70
2023/01/06 03:03:39;;;;;;;2.78;0.50;;;;;;;10.01;95.22;101040.38;5064869;28;20075;-70
2023/01/06 03:06:47;;;;;;;1.58;0.25;;;;;;;10.11;95.21;101035.63;5053468;28;20048;-71
2023/01/06 03:09:54;;;;;;;0.90;0.20;;;;;;;10.18;95.08;101025.78;5054031;28;20238;-70
2023/01/06 03:13:05;;;;;;;3.00;0.30;;;;;;;10.14;95.21;101022.41;5053613;28;20063;-70
2023/01/06 03:16:10;;;;;;;1.17;0.30;;;;;;;9.80;97.99;101023.00;5053704;28;20517;-70
2023/01/06 03:19:14;;;;;;;1.63;0.30;;;;;;;9.85;95.51;101007.13;5053551;28;20052;-70
2023/01/06 03:22:18;;;;;;;1.67;0.20;;;;;;;10.04;88.34;101012.44;5053311;28;20044;-70
2023/01/06 03:25:22;;;;;;;0.68;0.10;;;;;;;10.29;87.58;101012.28;5054172;28;20091;-70
2023/01/06 03:28:26;;;;;;;2.00;0.10;;;;;;;10.32;83.11;101007.75;5065232;28;20542;-70
2023/01/06 03:31:58;;;;;;;0.22;0.10;;;;;;;10.33;83.82;101004.22;5053559;28;20337;-70
2023/01/06 03:35:23;;;;;;;2.20;0.10;;;;;;;10.36;83.15;101001.47;5054024;28;20117;-70
2023/01/06 03:38:30;;;;;;;2.17;0.20;;;;;;;10.42;83.51;101003.81;5053456;28;20410;-71
2023/01/06 03:45:16;;;;;;;1.17;0.20;;;;;;;10.36;83.55;101005.84;5063695;28;20079;-70
2023/01/06 03:48:32;;;;;;;0.77;0.20;;;;;;;10.33;82.42;101016.44;5052940;28;20464;-70
2023/01/06 03:51:38;;;;;;;1.83;0.22;;;;;;;10.37;81.77;101012.78;5052904;28;20114;-71
2023/01/06 03:54:58;;;;;;;0.65;0.20;;;;;;;10.43;80.84;101016.00;5052831;28;20509;-71
2023/01/06 03:58:05;;;;;;;1.60;0.20;;;;;;;10.46;81.21;101026.31;5053512;28;20518;-71
2023/01/06 04:01:09;;;;;;;0.98;0.20;;;;;;;10.46;81.30;101022.81;5052632;28;20521;-71
2023/01/06 04:04:12;;;;;;;1.67;0.22;;;;;;;10.17;80.97;101029.28;5053526;28;20482;-70
2023/01/06 04:07:15;;;;;;;1.27;0.20;;;;;;;10.36;79.78;101022.38;5052217;28;20126;-70
2023/01/06 04:10:19;;;;;;;;;;;;;;;10.43;78.81;101023.84;5054186;28;20051;-70
2023/01/06 04:13:25;;;;;;;1.30;0.28;;;;;;;10.39;78.44;101024.88;5052477;28;19966;-70
2023/01/06 04:16:31;;;;;;;0.68;0.10;;;;;;;10.37;78.00;101031.06;5052597;28;20051;-70
2023/01/06 04:19:34;;;;;;;0.63;0.10;;;;;;;10.39;78.51;101030.09;5053207;28;20094;-70
2023/01/06 04:22:37;;;;;;;;;;;;;;;10.46;78.52;101033.28;5052788;28;20184;-70
2023/01/06 04:25:41;;;;;;;1.70;0.20;;;;;;;10.44;77.09;101022.91;5052066;28;20058;-70
2023/01/06 04:28:50;;;;;;;1.23;0.25;;;;;;;10.56;76.58;101026.75;5053361;28;20112;-70
2023/01/06 04:31:54;;;;;;;0.35;0.03;;;;;;;10.57;76.60;101025.84;5052233;28;20441;-70
2023/01/06 04:34:57;;;;;;;1.08;0.17;;;;;;;10.45;77.57;101023.75;5053006;28;20521;-71
2023/01/06 04:38:02;;;;;;;0.88;0.20;;;;;;;10.43;77.72;101010.75;5052234;28;20123;-71
2023/01/06 04:41:05;;;;;;;1.63;0.20;;;;;;;10.39;76.08;101005.72;5052806;28;20060;-71
2023/01/06 04:44:09;;;;;;;2.30;0.20;;;;;;;10.40;76.51;101013.50;5052754;28;20043;-71
2023/01/06 04:47:12;;;;;;;;;;;;;;;10.47;76.00;101007.09;5053120;28;20047;-71
2023/01/06 04:50:15;;;;;;;3.67;0.30;;;;;;;10.46;77.40;101005.41;5052712;28;19935;-71
2023/01/06 04:53:18;;;;;;;1.20;0.28;;;;;;;10.41;76.25;101007.34;5052743;28;20048;-71
2023/01/06 04:56:21;;;;;;;3.05;0.30;;;;;;;10.47;77.64;101012.31;5052301;28;20098;-72
2023/01/06 04:59:25;;;;;;;;;;;;;;;10.47;77.25;101016.69;5053074;28;20043;-72
2023/01/06 05:02:27;;;;;;;3.00;0.60;;;;;;;10.44;76.10;101006.38;5052477;28;19966;-72
2023/01/06 05:05:31;;;;;;;1.52;0.30;;;;;;;10.44;74.50;101006.38;5053076;28;20090;-72
2023/01/06 05:08:35;;;;;;;;;;;;;;;10.41;74.82;101007.34;5052965;28;20091;-72
2023/01/06 05:11:38;;;;;;;1.50;0.30;;;;;;;10.37;73.31;101000.56;5052502;28;19927;-72
2023/01/06 05:14:42;;;;;;;3.20;0.40;;;;;;;10.35;72.48;101007.63;5052733;28;20063;-73
2023/01/06 05:17:46;;;;;;;1.58;0.38;;;;;;;10.34;70.17;100994.59;5052367;28;20061;-74
2023/01/06 05:20:50;;;;;;;;;;;;;;;10.33;71.49;100993.75;5052922;28;20207;-72
2023/01/06 05:23:54;;;;;;;1.85;0.30;;;;;;;10.32;71.05;100986.84;5052642;28;20424;-72
2023/01/06 05:27:01;;;;;;;1.83;0.30;;;;;;;10.32;70.85;100991.22;5052202;28;20044;-74
2023/01/06 05:30:05;;;;;;;1.27;0.30;;;;;;;10.31;71.06;101006.06;5052417;28;20562;-75
2023/01/06 05:33:11;;;;;;;2.20;0.35;;;;;;;10.37;71.09;101004.94;5051311;28;20572;-73
2023/01/06 05:36:15;;;;;;;;;;;;;;;10.40;71.52;101003.06;5052552;28;20044;-72
2023/01/06 05:39:24;;;;;;;1.45;0.68;;;;;;;10.43;71.73;100995.06;5052222;28;19919;-72
2023/01/06 05:42:27;;;;;;;;;;;;;;;10.53;71.91;100987.69;5050673;28;20052;-71
2023/01/06 05:45:30;;;;;;;1.65;0.35;;;;;;;10.35;71.64;101001.56;5050942;28;19919;-73
2023/01/06 05:48:34;;;;;;;;;;;;;;;10.37;71.64;101000.56;5051938;28;20051;-72
2023/01/06 05:51:37;;;;;;;3.03;0.35;;;;;;;10.40;71.77;101002.19;5052351;28;19923;-71
2023/01/06 05:54:40;;;;;;;;;;;;;;;10.39;72.32;100995.25;5052366;28;20094;-72
2023/01/06 05:57:43;;;;;;;2.42;0.40;;;;;;;10.57;72.45;100988.38;5052181;28;19939;-71
2023/01/06 06:00:50;;;;;;;2.30;0.50;;;;;;;10.55;72.42;100993.66;5052081;28;20072;-71
2023/01/06 06:03:54;;;;;;;2.88;0.90;;;;;;;10.55;73.41;100998.91;5051953;28;20125;-71
2023/01/06 06:07:01;;;;;;;2.00;0.40;;;;;;;10.63;73.43;100995.94;5051490;28;20071;-71
2023/01/06 06:10:06;;;;;;;1.73;0.32;;;;;;;10.67;73.40;101002.72;5055051;28;20047;-70
2023/01/06 06:13:12;;;;;;;1.42;0.30;;;;;;;10.56;74.99;101005.84;5055615;28;20520;-71
2023/01/06 06:16:26;;;;;;;1.10;0.27;;;;;;;10.37;77.10;101000.56;5053372;28;20406;-71
2023/01/06 06:19:30;;;;;;;2.50;0.40;;;;;;;10.48;75.47;101007.94;5053394;28;20297;-70
2023/01/06 06:22:37;;;;;;;4.32;0.50;;;;;;;10.62;75.53;101004.69;5054129;28;20048;-70
2023/01/06 06:25:40;;;;;;;1.48;0.38;;;;;;;10.75;75.56;101010.22;5055175;28;20107;-69
2023/01/06 06:28:43;;;;;;;4.53;0.22;;;;;;;10.70;77.60;101010.44;5055333;28;20079;-70
2023/01/06 06:31:47;;;;;;;2.40;0.30;;;;;;;10.57;78.78;101001.47;5055643;28;20512;-70
2023/01/06 06:34:50;;;;;;;;;;;;;;;10.50;79.22;101005.22;5055578;28;20108;-70
2023/01/06 06:37:53;;;;;;;2.47;0.70;;;;;;;10.29;78.22;100994.81;5054376;28;19974;-71
2023/01/06 06:41:00;;;;;;;2.03;0.40;;;;;;;10.29;77.75;100986.97;5055190;28;20044;-70
2023/01/06 06:44:06;;;;;;;2.50;0.45;;;;;;;10.38;78.83;100997.03;5055021;28;20047;-71
2023/01/06 06:47:09;;;;;;;4.45;0.70;;;;;;;10.18;78.71;100989.19;5054985;28;20433;-71
2023/01/06 06:50:15;;;;;;;6.40;2.22;;;;;;;10.34;77.37;100990.25;5055034;28;20044;-71
2023/01/06 06:53:19;;;;;;;1.98;0.20;;;;;;;10.44;78.39;100991.53;5065013;28;20186;-71
2023/01/06 06:56:22;;;;;;;1.92;0.45;;;;;;;10.37;78.38;100992.72;5051538;28;20048;-71
2023/01/06 06:59:26;;;;;;;;;;;;;;;10.43;79.22;100979.41;5053682;28;20071;-71
2023/01/06 07:02:29;;;;;;;3.50;0.85;;;;;;;10.41;79.58;100991.66;5053992;28;19973;-71
2023/01/06 07:05:33;;;;;;;4.15;0.50;;;;;;;9.99;80.44;101000.41;5054371;28;20043;-71
2023/01/06 07:08:35;;;;;;;;;;;;;;;10.03;78.67;101008.97;5065537;28;20095;-71
2023/01/06 07:11:39;;;;;;;2.63;0.70;;;;;;;10.09;80.29;101010.50;5054495;28;19919;-71
2023/01/06 07:14:42;;;;;;;2.65;0.90;;;;;;;10.29;77.85;101002.66;5053860;28;20410;-70
2023/01/06 07:17:46;;;;;;;2.97;1.08;;;;;;;10.25;78.63;101003.69;5054674;28;20107;-71
2023/01/06 07:20:52;;;;;;;;;;;;;;;10.35;77.48;100996.31;5054477;28;20083;-71
2023/01/06 07:23:58;;;;;;;8.07;3.13;;;;;;;10.22;76.31;100998.59;5051006;28;19919;-71
2023/01/06 07:27:01;;;;;;;;;;;;;;;10.32;77.32;101006.91;5053112;28;20092;-72
2023/01/06 07:30:06;;;;;;;4.78;1.98;;;;;;;10.39;76.70;101009.19;5054475;28;20332;-71
2023/01/06 07:33:10;;;;;;;6.43;1.27;;;;;;;10.38;77.58;101017.94;5052594;28;20048;-70
2023/01/06 07:36:13;;;;;;;;;;;;;;;10.42;76.49;101006.44;5054240;28;20442;-71
2023/01/06 07:39:16;;;;;;;4.17;0.77;;;;;;;10.38;76.03;101012.72;5053063;28;19965;-70
2023/01/06 07:42:20;;;;;;;3.03;0.65;;;;;;;10.38;76.41;101017.09;5053930;28;20294;-71
2023/01/06 07:45:23;;;;;;;3.10;0.80;;;;;;;10.31;75.90;101018.28;5053719;28;20075;-71
2023/01/06 07:48:26;;;;;;;;;;;;;;;10.39;75.49;101024.88;5054224;28;20090;-71
2023/01/06 07:51:29;;;;;;;4.78;0.80;;;;;;;10.37;75.48;101024.09;5052707;28;19984;-71
2023/01/06 07:54:32;;;;;;;5.10;0.60;;;;;;;10.31;76.36;101020.91;5051723;28;20043;-70
2023/01/06 07:57:36;;;;;;;1.33;0.40;;;;;;;10.32;75.06;101028.66;5051140;28;20052;-71
2023/01/06 08:00:39;;;;;;;4.63;0.60;;;;;;;10.39;74.70;101026.63;5051448;28;20106;-70
2023/01/06 08:03:50;;;;;;;2.08;0.30;;;;;;;10.40;74.90;101016.13;5051302;28;20162;-72
2023/01/06 08:06:54;;;;;;;3.38;0.60;;;;;;;10.40;74.82;101016.13;5051174;28;20043;-71
2023/01/06 08:09:57;;;;;;;;;;;;;;;10.48;74.77;101016.63;5053651;28;20569;-71
2023/01/06 08:13:00;;;;;;;3.88;0.68;;;;;;;10.45;74.50;101005.44;5053407;28;19979;-73
2023/01/06 08:16:08;;;;;;;3.85;0.60;;;;;;;10.45;74.51;101005.44;5053452;28;20095;-72
2023/01/06 08:19:11;;;;;;;1.73;0.57;;;;;;;10.38;74.35;101002.25;5053305;28;20048;-71
2023/01/06 08:22:14;;;;;;;;;;;;;;;10.46;74.63;101008.00;5053546;28;20043;-70
2023/01/06 08:25:17;;;;;;;4.55;0.70;;;;;;;10.40;74.84;101010.03;5053104;28;19919;-70
2023/01/06 08:28:20;;;;;;;5.07;1.02;;;;;;;10.44;74.85;101011.59;5053201;28;20068;-70
2023/01/06 08:31:24;;;;;;;;;;;;;;;10.31;75.14;101006.06;5052951;28;20089;-70
2023/01/06 08:47:21;;;;;;;3.83;1.90;;;;;;;10.39;74.24;101017.03;5039062;28;20376;-72
2023/01/06 08:50:25;;;;;;;4.85;1.70;;;;;;;10.47;74.10;101033.22;5040031;28;20062;-72
2023/01/06 08:53:28;;;;;;;5.88;2.10;;;;;;;10.53;73.95;101026.91;5039660;28;20151;-73
2023/01/06 08:56:31;;;;;;;2.35;0.80;;;;;;;10.70;76.01;101029.59;5043025;28;20531;-70
2023/01/06 08:59:35;;;;;;;9.05;6.03;;;;;;;10.77;75.28;101039.78;5024994;28;20106;-70
2023/01/06 09:02:39;;;;;;;9.95;6.43;;;;;;;10.98;74.47;101045.84;5024730;28;20064;-72
2023/01/06 09:05:42;;;;;;;47.08;27.33;;;;;;;10.85;74.37;101043.78;5032804;28;20040;-73
2023/01/06 09:08:47;;;;;;;;;;;;;;;10.88;74.69;101041.00;5044757;28;20102;-74
2023/01/06 09:11:50;;;;;;;30.55;17.92;;;;;;;10.96;74.31;101038.03;5044712;28;19923;-75
2023/01/06 09:14:54;;;;;;;41.13;19.67;;;;;;;11.03;73.84;101042.06;5022412;28;20048;-73
2023/01/06 09:17:57;;;;;;;7.90;2.97;;;;;;;10.82;73.88;101040.44;5037701;28;20544;-73
2023/01/06 09:21:00;;;;;;;;;;;;;;;10.83;73.65;101040.34;5040674;28;20048;-74
2023/01/06 09:24:04;;;;;;;3.00;0.98;;;;;;;10.73;74.10;101054.78;5039206;28;20380;-74
2023/01/06 09:27:07;;;;;;;3.60;0.70;;;;;;;10.66;74.39;101035.03;5039928;28;20495;-73
2023/01/06 09:30:12;;;;;;;3.45;1.38;;;;;;;10.67;75.03;101044.59;5038676;28;20056;-74
2023/01/06 09:33:17;;;;;;;3.17;1.15;;;;;;;10.56;74.78;101049.41;5039369;28;20044;-72
2023/01/06 09:36:21;;;;;;;2.10;0.90;;;;;;;10.63;74.52;101050.88;5019852;28;20041;-72
2023/01/06 09:39:24;;;;;;;4.45;1.15;;;;;;;10.63;75.22;101051.72;5019420;28;20109;-73
2023/01/06 09:42:27;;;;;;;1.92;0.50;;;;;;;10.64;74.29;101063.88;5019750;28;20890;-73
2023/01/06 09:45:38;;;;;;;1.60;0.30;;;;;;;10.73;74.41;101065.22;5019595;28;20052;-73
2023/01/06 09:49:04;;;;;;;1.88;0.40;;;;;;;10.70;74.99;101075.84;5006087;28;20532;-74
2023/01/06 10:17:15;;;;;;;0.98;0.30;;;;;;;10.66;75.14;101069.03;5063617;28;20056;-79
2023/01/06 10:20:54;;;;;;;0.50;0.20;;;;;;;10.64;74.85;101065.63;5053447;28;20442;-80
2023/01/06 10:24:06;;;;;;;1.63;0.45;;;;;;;10.77;74.14;101060.72;5054801;28;20040;-81
2023/01/06 10:27:31;;;;;;;3.53;0.57;;;;;;;10.78;73.95;101076.31;5051381;28;20479;-79
2023/01/06 10:30:53;;;;;;;0.68;0.25;;;;;;;10.88;73.29;101058.44;5050073;28;20507;-79
2023/01/06 10:33:59;;;;;;;1.88;0.47;;;;;;;10.78;74.06;101050.16;5055343;28;20549;-87
2023/01/06 10:37:09;;;;;;;4.57;0.90;;;;;;;10.74;74.09;101039.94;5073545;28;20063;-87
2023/01/06 10:40:26;;;;;;;3.70;0.40;;;;;;;10.85;73.92;101032.47;5072523;28;20094;-86
2023/01/06 10:43:32;;;;;;;2.53;0.50;;;;;;;10.83;73.85;101035.13;5071533;28;20286;-87
2023/01/06 10:50:25;;;;;;;1.50;0.40;;;;;;;10.81;74.11;101010.78;5071156;28;20026;-81
2023/01/06 10:57:28;;;;;;;1.90;0.40;;;;;;;10.85;74.10;101024.59;5067028;28;20047;-88
2023/01/06 11:00:32;;;;;;;3.58;2.10;;;;;;;11.03;73.32;101025.53;5082626;23;20051;-70
2023/01/06 11:04:01;;;;;;;;;;;;;;;10.98;73.18;101027.50;5065541;28;20051;-70
2023/01/06 11:07:07;;;;;;;1.52;0.20;;;;;;;11.08;73.36;101026.16;5064505;28;19919;-69
2023/01/06 11:10:39;;;;;;;1.58;0.20;;;;;;;11.12;73.17;101025.09;5067731;28;20052;-70
2023/01/06 11:13:52;;;;;;;2.20;0.50;;;;;;;10.98;73.58;101027.50;5068875;28;20039;-69
2023/01/06 11:17:00;;;;;;;0.88;0.30;;;;;;;10.94;73.93;101016.31;5068767;28;20569;-69
2023/01/06 11:20:12;;;;;;;0.85;0.20;;;;;;;10.94;73.91;101017.19;5069252;28;20059;-69
2023/01/06 11:23:22;;;;;;;2.60;1.50;;;;;;;10.93;74.21;101015.47;5068151;28;20079;-69
2023/01/06 11:26:26;;;;;;;2.22;0.30;;;;;;;10.90;74.12;101022.63;5067551;28;20105;-69
2023/01/06 11:29:32;;;;;;;1.65;0.60;;;;;;;11.04;73.94;101006.28;5064276;28;20417;-69
2023/01/06 11:32:36;;;;;;;1.10;0.10;;;;;;;11.07;73.64;101016.59;5064855;28;20055;-70
2023/01/06 11:35:39;;;;;;;1.55;0.30;;;;;;;11.11;73.73;101021.63;5064311;28;20034;-70
2023/01/06 11:38:46;;;;;;;1.17;0.13;;;;;;;11.04;74.19;101012.38;5064595;28;20093;-70
2023/01/06 11:41:51;;;;;;;1.10;0.28;;;;;;;11.05;73.95;101019.31;5066341;28;20058;-69
2023/01/06 11:44:57;;;;;;;3.15;0.32;;;;;;;11.05;73.83;101008.84;5067140;28;20039;-70
2023/01/06 11:53:01;;;;;;;5.43;3.38;;;;;;;11.06;73.96;101001.81;5065878;28;20120;-71
2023/01/06 11:56:24;;;;;;;2.38;0.63;;;;;;;11.13;73.84;101016.31;5064996;28;20078;-70
2023/01/06 11:59:52;;;;;;;3.08;1.40;;;;;;;11.08;74.05;101006.06;5065606;28;20058;-71
2023/01/06 12:03:24;;;;;;;2.20;0.70;;;;;;;11.10;74.30;101014.72;5066961;28;20584;-71
2023/01/06 12:06:42;;;;;;;2.95;0.30;;;;;;;11.03;74.33;101007.19;5068874;28;20155;-70
2023/01/06 12:09:48;;;;;;;0.60;0.20;;;;;;;11.09;74.28;101001.69;5063430;28;20567;-70
2023/01/06 12:12:51;;;;;;;2.78;1.23;;;;;;;11.03;74.69;101025.53;5068732;28;20101;-71
2023/01/06 12:16:07;;;;;;;2.90;0.90;;;;;;;11.07;74.70;101027.06;5068014;28;20051;-70
2023/01/06 12:19:18;;;;;;;8.40;1.73;;;;;;;11.12;74.38;101018.09;5071238;28;20094;-71
2023/01/06 12:22:45;;;;;;;1.33;0.40;;;;;;;11.12;74.14;101009.38;5071096;28;20052;-71
2023/01/06 12:25:52;;;;;;;5.25;2.22;;;;;;;11.09;74.17;101023.47;5071492;28;20075;-72
2023/01/06 12:28:57;;;;;;;1.48;0.30;;;;;;;11.14;73.83;101007.56;5070494;28;20055;-71
2023/01/06 12:32:17;;;;;;;1.40;0.40;;;;;;;11.26;73.75;101006.97;5071675;28;20046;-71
2023/01/06 12:35:25;;;;;;;2.65;0.47;;;;;;;11.27;73.18;101006.06;5070979;28;20094;-71
2023/01/06 12:38:53;;;;;;;2.17;1.00;;;;;;;11.42;73.12;101001.84;5071211;28;20079;-72
2023/01/06 12:42:06;;;;;;;1.73;0.60;;;;;;;11.35;73.16;100996.06;5071448;28;20040;-79
2023/01/06 12:45:23;;;;;;;0.90;0.30;;;;;;;11.39;72.56;101002.84;5071114;28;20120;-72
2023/01/06 12:48:52;;;;;;;2.13;0.60;;;;;;;11.44;72.93;100999.16;5071322;28;20510;-69
2023/01/06 12:52:00;;;;;;;2.60;0.40;;;;;;;11.47;73.27;100999.00;5071150;28;20098;-70
2023/01/06 12:55:04;;;;;;;2.10;0.60;;;;;;;11.37;73.28;100999.44;5070787;28;20505;-70
2023/01/06 12:58:18;;;;;;;2.17;0.50;;;;;;;11.48;73.27;100995.47;5069994;28;20113;-71
2023/01/06 13:02:08;;;;;;;2.20;0.60;;;;;;;11.56;72.93;100993.34;5071108;28;20110;-70
2023/01/06 13:05:37;;;;;;;3.25;1.75;;;;;;;11.46;72.89;100992.09;5054409;28;20052;-70
2023/01/06 13:09:01;;;;;;;1.40;0.50;;;;;;;11.48;73.06;100998.94;5072928;28;20051;-71
2023/01/06 13:12:31;;;;;;;1.58;0.50;;;;;;;11.39;73.52;101008.09;5068248;28;20075;-70
2023/01/06 13:15:39;;;;;;;7.57;4.00;;;;;;;11.47;73.72;101001.63;5070782;28;20170;-70
2023/01/06 13:18:54;;;;;;;5.47;3.45;;;;;;;11.52;73.11;101012.72;5070990;28;20056;-70
2023/01/06 13:22:00;;;;;;;3.63;1.90;;;;;;;11.41;72.97;100998.38;5071985;28;20178;-73
2023/01/06 13:25:27;;;;;;;4.63;3.28;;;;;;;11.26;74.31;100998.25;5074076;28;20508;-70
2023/01/06 13:28:46;;;;;;;4.75;3.85;;;;;;;11.30;73.98;101002.44;5058908;28;20048;-74
2023/01/06 13:31:52;;;;;;;7.10;5.10;;;;;;;11.29;73.86;101003.34;5073832;28;20153;-71
2023/01/06 13:35:17;;;;;;;7.03;6.20;;;;;;;11.37;73.91;100991.59;5073725;28;20113;-72
2023/01/06 13:38:45;;;;;;;3.33;2.30;;;;;;;11.32;73.69;100990.97;5074620;28;20075;-71
2023/01/06 13:41:54;;;;;;;5.70;4.80;;;;;;;11.24;74.39;100987.03;5074460;28;20059;-73
2023/01/06 13:44:57;;;;;;;4.15;2.85;;;;;;;11.20;74.39;100985.47;5074068;28;20520;-72
2023/01/06 13:48:07;;;;;;;4.90;3.95;;;;;;;11.22;74.40;100981.84;5074270;28;20563;-72
2023/01/06 13:51:13;;;;;;;4.05;2.10;;;;;;;11.29;74.38;100991.09;5064976;28;20047;-73
2023/01/06 13:54:38;;;;;;;4.10;2.90;;;;;;;11.36;74.10;100996.94;5071068;28;20071;-73
2023/01/06 13:57:42;;;;;;;3.97;2.25;;;;;;;11.30;74.33;100991.97;5071647;28;20126;-74
2023/01/06 14:01:07;;;;;;;10.95;5.38;;;;;;;11.47;73.74;100996.41;5070824;28;20105;-72
2023/01/06 14:04:34;;;;;;;7.93;4.47;;;;;;;11.41;74.08;100995.75;5070490;28;20047;-75
2023/01/06 14:07:49;;;;;;;2.47;1.50;;;;;;;11.31;74.31;100989.28;5069239;28;20097;-74
2023/01/06 14:11:01;;;;;;;2.15;0.80;;;;;;;11.31;74.66;100989.28;5071492;28;20683;-73
2023/01/06 14:14:29;;;;;;;2.20;0.90;;;;;;;11.29;74.50;101004.19;5065750;28;20867;-74
2023/01/06 14:17:41;;;;;;;3.33;0.50;;;;;;;11.19;74.78;100995.09;5068293;28;20039;-74
2023/01/06 14:20:45;;;;;;;4.22;2.72;;;;;;;11.16;75.18;101003.09;5069556;28;20531;-74
2023/01/06 14:23:54;;;;;;;2.42;1.10;;;;;;;11.14;75.28;101005.78;5069490;28;20133;-75
2023/01/06 14:27:07;;;;;;;2.85;0.95;;;;;;;11.18;74.96;101012.56;5069295;28;20527;-76
2023/01/06 14:30:20;;;;;;;1.83;0.60;;;;;;;11.21;75.38;101008.13;5067656;28;20059;-74
2023/01/06 14:33:53;;;;;;;1.30;0.40;;;;;;;11.18;75.34;101009.09;5067980;28;20097;-73
2023/01/06 14:37:01;;;;;;;3.35;1.15;;;;;;;11.16;75.34;101001.31;5056729;28;20075;-74
2023/01/06 14:40:05;;;;;;;1.50;0.63;;;;;;;11.13;75.48;101005.84;5068776;28;20138;-72
2023/01/06 14:43:29;;;;;;;3.63;1.13;;;;;;;11.19;75.71;101005.56;5069829;28;20420;-73
2023/01/06 14:47:10;;;;;;;1.80;0.35;;;;;;;11.16;75.56;101003.09;5069164;28;20043;-72
2023/01/06 14:50:18;;;;;;;3.08;0.73;;;;;;;11.28;75.30;101010.38;5069224;28;20043;-74
2023/01/06 14:53:57;;;;;;;5.78;1.95;;;;;;;11.35;75.05;101014.38;5069255;28;20515;-73
2023/01/06 14:57:02;;;;;;;1.25;0.43;;;;;;;11.22;75.02;101008.03;5068590;28;20040;-73
2023/01/06 15:00:26;;;;;;;1.55;0.50;;;;;;;11.26;75.02;101021.81;5049003;28;20119;-73
2023/01/06 15:03:31;;;;;;;1.35;0.30;;;;;;;11.30;75.04;101020.78;5048746;28;20052;-71
2023/01/06 15:06:35;;;;;;;1.17;0.40;;;;;;;11.29;74.92;101021.69;5063318;28;20161;-71
2023/01/06 15:09:38;;;;;;;1.77;0.63;;;;;;;11.46;74.69;101026.13;5064826;28;20414;-71
2023/01/06 15:12:44;;;;;;;1.40;0.50;;;;;;;11.38;74.94;101032.56;5060281;28;20140;-71
2023/01/06 15:16:01;;;;;;;0.50;0.10;;;;;;;11.30;74.75;101034.72;5066434;28;20055;-71
2023/01/06 15:19:14;;;;;;;1.10;0.40;;;;;;;11.37;75.02;101032.66;5065696;28;20416;-71
2023/01/06 15:22:24;;;;;;;1.67;0.60;;;;;;;11.24;75.47;101045.47;5063326;28;20055;-73
2023/01/06 15:25:31;;;;;;;1.45;0.20;;;;;;;11.34;75.04;101038.03;5065875;28;20082;-71
2023/01/06 15:28:40;;;;;;;0.73;0.30;;;;;;;11.26;75.39;101040.16;5064114;28;20047;-71
2023/01/06 15:31:48;;;;;;;1.17;0.30;;;;;;;11.12;76.07;101035.56;5065181;28;20079;-72
2023/01/06 15:34:58;;;;;;;1.85;0.70;;;;;;;11.10;76.26;101037.38;5061711;28;20055;-71
2023/01/06 15:38:21;;;;;;;3.45;1.48;;;;;;;11.11;76.38;101041.72;5064100;28;20086;-72
2023/01/06 15:41:36;;;;;;;3.67;1.60;;;;;;;11.13;76.41;101042.47;5065343;28;20461;-71
2023/01/06 15:44:53;;;;;;;3.42;1.10;;;;;;;11.11;76.07;101031.25;5065671;28;20076;-72